sensor_id;sensor_type;location;lat;lon;timestamp;P1;durP1;ratioP1;P2;durP2;ratioP2
6105;SDS011;3083;51.508;7.966;2023-02-19T00:01:34;25.10;;;10.67;;
6105;SDS011;3083;51.508;7.966;2023-02-19T00:04:03;26.40;;;11.40;;
6105;SDS011;3083;51.508;7.966;2023-02-19T00:06:31;24.23;;;11.20;;
6105;SDS011;3083;51.508;7.966;2023-02-19T00:08:59;20.87;;;8.93;;
6105;SDS011;3083;51.508;7.966;2023-02-19T00:11:28;20.93;;;9.37;;
6105;SDS011;3083;51.508;7.966;2023-02-19T00:13:56;22.03;;;9.03;;
6105;SDS011;3083;51.508;7.966;2023-02-19T00:16:25;20.17;;;9.20;;
6105;SDS011;3083;51.508;7.966;2023-02-19T00:18:55;20.23;;;9.20;;
6105;SDS011;3083;51.508;7.966;2023-02-19T00:21:22;20.03;;;8.83;;
6105;SDS011;3083;51.508;7.966;2023-02-19T00:23:50;21.60;;;8.97;;
6105;SDS011;3083;51.508;7.966;2023-02-19T00:26:18;20.43;;;9.50;;
6105;SDS011;3083;51.508;7.966;2023-02-19T00:28:46;21.67;;;8.87;;
6105;SDS011;3083;51.508;7.966;2023-02-19T00:31:14;20.13;;;8.50;;
6105;SDS011;3083;51.508;7.966;2023-02-19T00:33:43;24.80;;;9.50;;
6105;SDS011;3083;51.508;7.966;2023-02-19T00:36:12;21.70;;;9.20;;
6105;SDS011;3083;51.508;7.966;2023-02-19T00:38:40;23.73;;;9.90;;
6105;SDS011;3083;51.508;7.966;2023-02-19T00:41:08;22.77;;;8.93;;
6105;SDS011;3083;51.508;7.966;2023-02-19T00:43:45;24.10;;;9.70;;
6105;SDS011;3083;51.508;7.966;2023-02-19T00:46:13;22.20;;;10.03;;
6105;SDS011;3083;51.508;7.966;2023-02-19T00:48:40;25.67;;;10.13;;
6105;SDS011;3083;51.508;7.966;2023-02-19T00:51:07;27.57;;;10.97;;
6105;SDS011;3083;51.508;7.966;2023-02-19T00:53:35;26.80;;;11.00;;
6105;SDS011;3083;51.508;7.966;2023-02-19T00:56:02;30.17;;;11.60;;
6105;SDS011;3083;51.508;7.966;2023-02-19T00:58:30;30.40;;;12.00;;
6105;SDS011;3083;51.508;7.966;2023-02-19T01:00:57;27.70;;;10.80;;
6105;SDS011;3083;51.508;7.966;2023-02-19T01:03:24;24.60;;;10.20;;
6105;SDS011;3083;51.508;7.966;2023-02-19T01:05:52;32.67;;;11.67;;
6105;SDS011;3083;51.508;7.966;2023-02-19T01:08:19;26.40;;;10.20;;
6105;SDS011;3083;51.508;7.966;2023-02-19T01:10:47;30.47;;;11.50;;
6105;SDS011;3083;51.508;7.966;2023-02-19T01:13:14;31.67;;;11.47;;
6105;SDS011;3083;51.508;7.966;2023-02-19T01:15:41;28.40;;;10.90;;
6105;SDS011;3083;51.508;7.966;2023-02-19T01:18:08;27.00;;;11.73;;
6105;SDS011;3083;51.508;7.966;2023-02-19T01:20:37;31.07;;;12.20;;
6105;SDS011;3083;51.508;7.966;2023-02-19T01:23:04;31.67;;;11.33;;
6105;SDS011;3083;51.508;7.966;2023-02-19T01:25:31;33.80;;;12.97;;
6105;SDS011;3083;51.508;7.966;2023-02-19T01:28:00;31.23;;;12.90;;
6105;SDS011;3083;51.508;7.966;2023-02-19T01:30:26;32.83;;;12.13;;
6105;SDS011;3083;51.508;7.966;2023-02-19T01:32:53;31.20;;;12.30;;
6105;SDS011;3083;51.508;7.966;2023-02-19T01:35:20;33.27;;;13.30;;
6105;SDS011;3083;51.508;7.966;2023-02-19T01:37:48;36.70;;;13.17;;
6105;SDS011;3083;51.508;7.966;2023-02-19T01:40:15;31.47;;;11.80;;
6105;SDS011;3083;51.508;7.966;2023-02-19T01:42:42;32.17;;;12.10;;
6105;SDS011;3083;51.508;7.966;2023-02-19T01:45:18;32.73;;;13.13;;
6105;SDS011;3083;51.508;7.966;2023-02-19T01:47:50;30.67;;;10.53;;
6105;SDS011;3083;51.508;7.966;2023-02-19T01:50:30;30.70;;;11.50;;
6105;SDS011;3083;51.508;7.966;2023-02-19T01:53:01;29.10;;;11.33;;
6105;SDS011;3083;51.508;7.966;2023-02-19T01:55:30;25.20;;;9.40;;
6105;SDS011;3083;51.508;7.966;2023-02-19T01:57:58;23.13;;;8.73;;
6105;SDS011;3083;51.508;7.966;2023-02-19T02:00:28;20.50;;;8.63;;
6105;SDS011;3083;51.508;7.966;2023-02-19T02:02:55;20.87;;;8.13;;
6105;SDS011;3083;51.508;7.966;2023-02-19T02:05:28;18.23;;;7.43;;
6105;SDS011;3083;51.508;7.966;2023-02-19T02:08:03;19.50;;;8.17;;
6105;SDS011;3083;51.508;7.966;2023-02-19T02:10:48;19.50;;;8.07;;
6105;SDS011;3083;51.508;7.966;2023-02-19T02:13:15;21.23;;;7.93;;
6105;SDS011;3083;51.508;7.966;2023-02-19T02:15:48;20.07;;;8.40;;
6105;SDS011;3083;51.508;7.966;2023-02-19T02:18:27;17.13;;;7.03;;
6105;SDS011;3083;51.508;7.966;2023-02-19T02:21:10;19.10;;;8.03;;
6105;SDS011;3083;51.508;7.966;2023-02-19T02:24:04;20.60;;;7.30;;
6105;SDS011;3083;51.508;7.966;2023-02-19T02:26:42;22.10;;;7.13;;
6105;SDS011;3083;51.508;7.966;2023-02-19T02:32:23;20.80;;;8.17;;
6105;SDS011;3083;51.508;7.966;2023-02-19T02:34:52;21.67;;;8.10;;
6105;SDS011;3083;51.508;7.966;2023-02-19T02:37:24;20.20;;;8.33;;
6105;SDS011;3083;51.508;7.966;2023-02-19T02:39:55;18.90;;;7.60;;
6105;SDS011;3083;51.508;7.966;2023-02-19T02:42:23;18.57;;;8.30;;
6105;SDS011;3083;51.508;7.966;2023-02-19T02:44:53;21.07;;;7.90;;
6105;SDS011;3083;51.508;7.966;2023-02-19T02:47:41;24.43;;;8.83;;
6105;SDS011;3083;51.508;7.966;2023-02-19T02:50:16;19.80;;;8.67;;
6105;SDS011;3083;51.508;7.966;2023-02-19T02:52:46;21.50;;;8.50;;
6105;SDS011;3083;51.508;7.966;2023-02-19T02:55:36;23.97;;;10.50;;
6105;SDS011;3083;51.508;7.966;2023-02-19T02:58:08;31.67;;;9.63;;
6105;SDS011;3083;51.508;7.966;2023-02-19T03:00:35;29.63;;;11.10;;
6105;SDS011;3083;51.508;7.966;2023-02-19T03:03:19;29.50;;;11.43;;
6105;SDS011;3083;51.508;7.966;2023-02-19T03:05:49;29.43;;;11.20;;
6105;SDS011;3083;51.508;7.966;2023-02-19T03:08:21;30.90;;;12.83;;
6105;SDS011;3083;51.508;7.966;2023-02-19T03:10:53;34.27;;;13.10;;
6105;SDS011;3083;51.508;7.966;2023-02-19T03:13:45;30.60;;;12.53;;
6105;SDS011;3083;51.508;7.966;2023-02-19T03:16:30;30.47;;;12.70;;
6105;SDS011;3083;51.508;7.966;2023-02-19T03:19:21;33.70;;;13.17;;
6105;SDS011;3083;51.508;7.966;2023-02-19T03:21:53;28.20;;;12.47;;
6105;SDS011;3083;51.508;7.966;2023-02-19T03:24:25;30.40;;;12.00;;
6105;SDS011;3083;51.508;7.966;2023-02-19T03:27:12;27.03;;;11.60;;
6105;SDS011;3083;51.508;7.966;2023-02-19T03:29:42;31.63;;;12.10;;
6105;SDS011;3083;51.508;7.966;2023-02-19T03:32:11;27.00;;;10.30;;
6105;SDS011;3083;51.508;7.966;2023-02-19T03:34:45;26.87;;;11.27;;
6105;SDS011;3083;51.508;7.966;2023-02-19T03:37:17;27.20;;;11.60;;
6105;SDS011;3083;51.508;7.966;2023-02-19T03:39:51;25.43;;;12.20;;
6105;SDS011;3083;51.508;7.966;2023-02-19T03:42:24;28.30;;;11.17;;
6105;SDS011;3083;51.508;7.966;2023-02-19T03:45:05;32.83;;;12.30;;
6105;SDS011;3083;51.508;7.966;2023-02-19T03:47:50;33.43;;;13.70;;
6105;SDS011;3083;51.508;7.966;2023-02-19T03:50:25;33.50;;;13.33;;
6105;SDS011;3083;51.508;7.966;2023-02-19T03:52:56;39.37;;;16.30;;
6105;SDS011;3083;51.508;7.966;2023-02-19T03:55:30;39.00;;;16.33;;
6105;SDS011;3083;51.508;7.966;2023-02-19T03:58:03;44.43;;;16.67;;
6105;SDS011;3083;51.508;7.966;2023-02-19T04:00:35;43.60;;;16.87;;
6105;SDS011;3083;51.508;7.966;2023-02-19T04:03:07;52.17;;;20.97;;
6105;SDS011;3083;51.508;7.966;2023-02-19T04:05:43;52.20;;;21.03;;
6105;SDS011;3083;51.508;7.966;2023-02-19T04:08:13;46.33;;;20.43;;
6105;SDS011;3083;51.508;7.966;2023-02-19T04:10:42;52.50;;;18.80;;
6105;SDS011;3083;51.508;7.966;2023-02-19T04:13:14;38.33;;;17.80;;
6105;SDS011;3083;51.508;7.966;2023-02-19T04:15:45;41.53;;;15.00;;
6105;SDS011;3083;51.508;7.966;2023-02-19T04:18:15;35.50;;;14.40;;
6105;SDS011;3083;51.508;7.966;2023-02-19T04:20:47;50.70;;;17.57;;
6105;SDS011;3083;51.508;7.966;2023-02-19T04:23:15;38.63;;;14.70;;
6105;SDS011;3083;51.508;7.966;2023-02-19T04:25:46;35.13;;;15.77;;
6105;SDS011;3083;51.508;7.966;2023-02-19T04:28:15;42.27;;;14.47;;
6105;SDS011;3083;51.508;7.966;2023-02-19T04:30:43;39.57;;;16.50;;
6105;SDS011;3083;51.508;7.966;2023-02-19T04:33:11;35.73;;;15.67;;
6105;SDS011;3083;51.508;7.966;2023-02-19T04:35:38;38.40;;;15.23;;
6105;SDS011;3083;51.508;7.966;2023-02-19T04:38:06;37.80;;;13.43;;
6105;SDS011;3083;51.508;7.966;2023-02-19T04:40:33;34.17;;;15.27;;
6105;SDS011;3083;51.508;7.966;2023-02-19T04:43:00;40.23;;;16.63;;
6105;SDS011;3083;51.508;7.966;2023-02-19T04:45:27;35.37;;;14.90;;
6105;SDS011;3083;51.508;7.966;2023-02-19T04:47:56;37.27;;;14.57;;
6105;SDS011;3083;51.508;7.966;2023-02-19T04:50:23;37.90;;;14.77;;
6105;SDS011;3083;51.508;7.966;2023-02-19T04:52:50;37.40;;;14.70;;
6105;SDS011;3083;51.508;7.966;2023-02-19T04:55:18;35.43;;;13.60;;
6105;SDS011;3083;51.508;7.966;2023-02-19T04:57:45;37.87;;;13.70;;
6105;SDS011;3083;51.508;7.966;2023-02-19T05:00:12;31.80;;;13.63;;
6105;SDS011;3083;51.508;7.966;2023-02-19T05:02:40;30.63;;;12.80;;
6105;SDS011;3083;51.508;7.966;2023-02-19T05:05:07;30.93;;;13.90;;
6105;SDS011;3083;51.508;7.966;2023-02-19T05:07:34;34.23;;;13.43;;
6105;SDS011;3083;51.508;7.966;2023-02-19T05:10:01;32.87;;;13.90;;
6105;SDS011;3083;51.508;7.966;2023-02-19T05:12:29;35.00;;;13.93;;
6105;SDS011;3083;51.508;7.966;2023-02-19T05:14:56;30.73;;;12.77;;
6105;SDS011;3083;51.508;7.966;2023-02-19T05:17:23;39.20;;;13.90;;
6105;SDS011;3083;51.508;7.966;2023-02-19T05:19:50;36.97;;;13.70;;
6105;SDS011;3083;51.508;7.966;2023-02-19T05:22:17;39.07;;;13.67;;
6105;SDS011;3083;51.508;7.966;2023-02-19T05:24:44;42.97;;;15.53;;
6105;SDS011;3083;51.508;7.966;2023-02-19T05:27:11;37.20;;;14.43;;
6105;SDS011;3083;51.508;7.966;2023-02-19T05:29:39;38.00;;;15.67;;
6105;SDS011;3083;51.508;7.966;2023-02-19T05:32:06;38.37;;;14.73;;
6105;SDS011;3083;51.508;7.966;2023-02-19T05:34:33;29.53;;;13.43;;
6105;SDS011;3083;51.508;7.966;2023-02-19T05:37:00;33.03;;;13.80;;
6105;SDS011;3083;51.508;7.966;2023-02-19T05:39:27;41.43;;;13.50;;
6105;SDS011;3083;51.508;7.966;2023-02-19T05:41:54;37.73;;;13.47;;
6105;SDS011;3083;51.508;7.966;2023-02-19T05:44:21;31.47;;;13.73;;
6105;SDS011;3083;51.508;7.966;2023-02-19T05:46:50;34.80;;;12.43;;
6105;SDS011;3083;51.508;7.966;2023-02-19T05:49:17;30.03;;;12.73;;
6105;SDS011;3083;51.508;7.966;2023-02-19T05:51:44;29.20;;;13.73;;
6105;SDS011;3083;51.508;7.966;2023-02-19T05:54:11;35.47;;;13.63;;
6105;SDS011;3083;51.508;7.966;2023-02-19T05:56:38;29.03;;;13.90;;
6105;SDS011;3083;51.508;7.966;2023-02-19T05:59:07;27.13;;;12.53;;
6105;SDS011;3083;51.508;7.966;2023-02-19T06:01:40;30.70;;;15.00;;
6105;SDS011;3083;51.508;7.966;2023-02-19T06:04:09;30.27;;;12.03;;
6105;SDS011;3083;51.508;7.966;2023-02-19T06:06:36;30.10;;;12.80;;
6105;SDS011;3083;51.508;7.966;2023-02-19T06:09:04;31.20;;;13.00;;
6105;SDS011;3083;51.508;7.966;2023-02-19T06:11:32;34.53;;;13.10;;
6105;SDS011;3083;51.508;7.966;2023-02-19T06:13:59;32.83;;;13.30;;
6105;SDS011;3083;51.508;7.966;2023-02-19T06:16:26;34.20;;;13.60;;
6105;SDS011;3083;51.508;7.966;2023-02-19T06:18:53;30.83;;;14.00;;
6105;SDS011;3083;51.508;7.966;2023-02-19T06:21:22;28.67;;;13.53;;
6105;SDS011;3083;51.508;7.966;2023-02-19T06:23:49;35.30;;;14.77;;
6105;SDS011;3083;51.508;7.966;2023-02-19T06:26:16;31.70;;;13.70;;
6105;SDS011;3083;51.508;7.966;2023-02-19T06:28:45;32.20;;;15.20;;
6105;SDS011;3083;51.508;7.966;2023-02-19T06:31:13;31.40;;;13.77;;
6105;SDS011;3083;51.508;7.966;2023-02-19T06:33:40;29.13;;;13.70;;
6105;SDS011;3083;51.508;7.966;2023-02-19T06:36:10;35.13;;;14.23;;
6105;SDS011;3083;51.508;7.966;2023-02-19T06:38:39;41.47;;;14.27;;
6105;SDS011;3083;51.508;7.966;2023-02-19T06:41:07;32.53;;;14.67;;
6105;SDS011;3083;51.508;7.966;2023-02-19T06:43:35;32.23;;;14.80;;
6105;SDS011;3083;51.508;7.966;2023-02-19T06:46:02;27.20;;;12.47;;
6105;SDS011;3083;51.508;7.966;2023-02-19T06:48:31;25.13;;;11.30;;
6105;SDS011;3083;51.508;7.966;2023-02-19T06:50:59;22.50;;;11.03;;
6105;SDS011;3083;51.508;7.966;2023-02-19T06:53:26;30.40;;;11.57;;
6105;SDS011;3083;51.508;7.966;2023-02-19T06:55:58;28.63;;;11.47;;
6105;SDS011;3083;51.508;7.966;2023-02-19T06:58:26;24.10;;;11.00;;
6105;SDS011;3083;51.508;7.966;2023-02-19T07:00:53;27.57;;;12.00;;
6105;SDS011;3083;51.508;7.966;2023-02-19T07:03:21;32.60;;;12.67;;
6105;SDS011;3083;51.508;7.966;2023-02-19T07:05:48;30.20;;;12.90;;
6105;SDS011;3083;51.508;7.966;2023-02-19T07:08:15;27.67;;;11.50;;
6105;SDS011;3083;51.508;7.966;2023-02-19T07:10:42;27.40;;;12.60;;
6105;SDS011;3083;51.508;7.966;2023-02-19T07:13:11;30.30;;;13.10;;
6105;SDS011;3083;51.508;7.966;2023-02-19T07:15:38;29.77;;;12.60;;
6105;SDS011;3083;51.508;7.966;2023-02-19T07:18:04;28.30;;;12.70;;
6105;SDS011;3083;51.508;7.966;2023-02-19T07:20:34;25.80;;;12.37;;
6105;SDS011;3083;51.508;7.966;2023-02-19T07:23:02;29.57;;;13.03;;
6105;SDS011;3083;51.508;7.966;2023-02-19T07:25:29;31.33;;;12.50;;
6105;SDS011;3083;51.508;7.966;2023-02-19T07:27:56;28.03;;;12.77;;
6105;SDS011;3083;51.508;7.966;2023-02-19T07:30:24;33.80;;;13.80;;
6105;SDS011;3083;51.508;7.966;2023-02-19T07:32:51;33.23;;;13.00;;
6105;SDS011;3083;51.508;7.966;2023-02-19T07:35:18;28.97;;;13.00;;
6105;SDS011;3083;51.508;7.966;2023-02-19T07:37:45;34.13;;;13.10;;
6105;SDS011;3083;51.508;7.966;2023-02-19T07:40:12;30.13;;;13.50;;
6105;SDS011;3083;51.508;7.966;2023-02-19T07:42:39;29.50;;;13.00;;
6105;SDS011;3083;51.508;7.966;2023-02-19T07:45:06;26.80;;;12.17;;
6105;SDS011;3083;51.508;7.966;2023-02-19T07:47:34;23.33;;;10.60;;
6105;SDS011;3083;51.508;7.966;2023-02-19T07:50:01;22.97;;;10.10;;
6105;SDS011;3083;51.508;7.966;2023-02-19T07:52:28;23.07;;;9.90;;
6105;SDS011;3083;51.508;7.966;2023-02-19T07:54:55;24.70;;;11.17;;
6105;SDS011;3083;51.508;7.966;2023-02-19T07:57:22;28.47;;;11.60;;
6105;SDS011;3083;51.508;7.966;2023-02-19T07:59:49;22.80;;;11.80;;
6105;SDS011;3083;51.508;7.966;2023-02-19T08:02:17;24.87;;;12.17;;
6105;SDS011;3083;51.508;7.966;2023-02-19T08:05:09;29.30;;;12.60;;
6105;SDS011;3083;51.508;7.966;2023-02-19T08:07:37;29.00;;;12.70;;
6105;SDS011;3083;51.508;7.966;2023-02-19T08:10:04;25.07;;;11.33;;
6105;SDS011;3083;51.508;7.966;2023-02-19T08:12:55;20.53;;;9.60;;
6105;SDS011;3083;51.508;7.966;2023-02-19T08:15:40;28.83;;;12.03;;
6105;SDS011;3083;51.508;7.966;2023-02-19T08:18:08;24.60;;;11.20;;
6105;SDS011;3083;51.508;7.966;2023-02-19T08:20:37;29.03;;;11.27;;
6105;SDS011;3083;51.508;7.966;2023-02-19T08:23:03;21.00;;;10.30;;
6105;SDS011;3083;51.508;7.966;2023-02-19T08:25:31;21.97;;;10.93;;
6105;SDS011;3083;51.508;7.966;2023-02-19T08:27:59;20.77;;;11.00;;
6105;SDS011;3083;51.508;7.966;2023-02-19T08:30:26;24.70;;;11.57;;
6105;SDS011;3083;51.508;7.966;2023-02-19T08:32:53;24.80;;;11.60;;
6105;SDS011;3083;51.508;7.966;2023-02-19T08:35:20;28.23;;;10.90;;
6105;SDS011;3083;51.508;7.966;2023-02-19T08:37:49;24.70;;;10.33;;
6105;SDS011;3083;51.508;7.966;2023-02-19T08:40:16;24.10;;;9.70;;
6105;SDS011;3083;51.508;7.966;2023-02-19T08:42:43;21.70;;;10.53;;
6105;SDS011;3083;51.508;7.966;2023-02-19T08:45:10;21.60;;;10.30;;
6105;SDS011;3083;51.508;7.966;2023-02-19T08:47:36;33.87;;;11.20;;
6105;SDS011;3083;51.508;7.966;2023-02-19T08:50:05;21.20;;;10.33;;
6105;SDS011;3083;51.508;7.966;2023-02-19T08:52:33;23.17;;;10.00;;
6105;SDS011;3083;51.508;7.966;2023-02-19T08:55:01;19.60;;;10.50;;
6105;SDS011;3083;51.508;7.966;2023-02-19T08:57:28;17.27;;;8.40;;
6105;SDS011;3083;51.508;7.966;2023-02-19T08:59:55;20.17;;;9.33;;
6105;SDS011;3083;51.508;7.966;2023-02-19T09:02:22;18.00;;;8.50;;
6105;SDS011;3083;51.508;7.966;2023-02-19T09:04:50;16.60;;;6.80;;
6105;SDS011;3083;51.508;7.966;2023-02-19T09:07:17;12.20;;;6.53;;
6105;SDS011;3083;51.508;7.966;2023-02-19T09:09:44;14.90;;;6.50;;
6105;SDS011;3083;51.508;7.966;2023-02-19T09:12:13;14.53;;;7.53;;
6105;SDS011;3083;51.508;7.966;2023-02-19T09:14:40;15.33;;;7.63;;
6105;SDS011;3083;51.508;7.966;2023-02-19T09:17:07;19.47;;;9.90;;
6105;SDS011;3083;51.508;7.966;2023-02-19T09:19:34;17.50;;;9.80;;
6105;SDS011;3083;51.508;7.966;2023-02-19T09:22:02;21.43;;;10.17;;
6105;SDS011;3083;51.508;7.966;2023-02-19T09:24:29;20.87;;;9.60;;
6105;SDS011;3083;51.508;7.966;2023-02-19T09:26:57;19.50;;;9.30;;
6105;SDS011;3083;51.508;7.966;2023-02-19T09:29:26;24.83;;;10.27;;
6105;SDS011;3083;51.508;7.966;2023-02-19T09:31:56;23.43;;;10.03;;
6105;SDS011;3083;51.508;7.966;2023-02-19T09:34:24;22.20;;;10.80;;
6105;SDS011;3083;51.508;7.966;2023-02-19T09:36:52;30.43;;;11.93;;
6105;SDS011;3083;51.508;7.966;2023-02-19T09:39:19;24.03;;;11.50;;
6105;SDS011;3083;51.508;7.966;2023-02-19T09:41:47;24.60;;;11.97;;
6105;SDS011;3083;51.508;7.966;2023-02-19T09:44:17;21.73;;;9.80;;
6105;SDS011;3083;51.508;7.966;2023-02-19T09:46:50;27.93;;;11.63;;
6105;SDS011;3083;51.508;7.966;2023-02-19T09:49:19;23.97;;;10.47;;
6105;SDS011;3083;51.508;7.966;2023-02-19T09:51:50;24.33;;;11.70;;
6105;SDS011;3083;51.508;7.966;2023-02-19T09:54:21;22.67;;;11.00;;
6105;SDS011;3083;51.508;7.966;2023-02-19T09:56:50;26.90;;;9.00;;
6105;SDS011;3083;51.508;7.966;2023-02-19T09:59:18;22.13;;;10.10;;
6105;SDS011;3083;51.508;7.966;2023-02-19T10:01:51;24.03;;;12.00;;
6105;SDS011;3083;51.508;7.966;2023-02-19T10:04:24;24.50;;;10.37;;
6105;SDS011;3083;51.508;7.966;2023-02-19T10:06:52;24.70;;;11.30;;
6105;SDS011;3083;51.508;7.966;2023-02-19T10:09:23;25.33;;;11.20;;
6105;SDS011;3083;51.508;7.966;2023-02-19T10:11:53;26.70;;;11.83;;
6105;SDS011;3083;51.508;7.966;2023-02-19T10:14:25;25.00;;;11.63;;
6105;SDS011;3083;51.508;7.966;2023-02-19T10:16:58;24.63;;;11.20;;
6105;SDS011;3083;51.508;7.966;2023-02-19T10:19:27;25.53;;;12.60;;
6105;SDS011;3083;51.508;7.966;2023-02-19T10:21:54;23.47;;;11.03;;
6105;SDS011;3083;51.508;7.966;2023-02-19T10:24:23;8.73;;;3.93;;
6105;SDS011;3083;51.508;7.966;2023-02-19T10:26:52;6.53;;;2.90;;
6105;SDS011;3083;51.508;7.966;2023-02-19T10:29:20;7.10;;;2.87;;
6105;SDS011;3083;51.508;7.966;2023-02-19T10:31:48;4.77;;;2.20;;
6105;SDS011;3083;51.508;7.966;2023-02-19T10:34:36;5.30;;;2.20;;
6105;SDS011;3083;51.508;7.966;2023-02-19T10:37:03;5.37;;;2.33;;
6105;SDS011;3083;51.508;7.966;2023-02-19T10:39:38;5.07;;;2.50;;
6105;SDS011;3083;51.508;7.966;2023-02-19T10:42:14;6.17;;;2.50;;
6105;SDS011;3083;51.508;7.966;2023-02-19T10:44:44;4.90;;;2.40;;
6105;SDS011;3083;51.508;7.966;2023-02-19T10:47:16;6.07;;;2.40;;
6105;SDS011;3083;51.508;7.966;2023-02-19T10:49:45;5.90;;;2.40;;
6105;SDS011;3083;51.508;7.966;2023-02-19T10:52:15;6.97;;;2.60;;
6105;SDS011;3083;51.508;7.966;2023-02-19T10:54:45;5.03;;;2.10;;
6105;SDS011;3083;51.508;7.966;2023-02-19T10:57:23;4.40;;;2.00;;
6105;SDS011;3083;51.508;7.966;2023-02-19T10:59:57;5.97;;;2.30;;
6105;SDS011;3083;51.508;7.966;2023-02-19T11:02:28;5.50;;;2.30;;
6105;SDS011;3083;51.508;7.966;2023-02-19T11:05:13;5.07;;;2.40;;
6105;SDS011;3083;51.508;7.966;2023-02-19T11:07:44;5.43;;;2.40;;
6105;SDS011;3083;51.508;7.966;2023-02-19T11:10:20;6.67;;;2.20;;
6105;SDS011;3083;51.508;7.966;2023-02-19T11:12:52;5.83;;;2.63;;
6105;SDS011;3083;51.508;7.966;2023-02-19T11:15:21;6.70;;;2.27;;
6105;SDS011;3083;51.508;7.966;2023-02-19T11:17:57;4.93;;;2.30;;
6105;SDS011;3083;51.508;7.966;2023-02-19T11:20:27;4.47;;;1.80;;
6105;SDS011;3083;51.508;7.966;2023-02-19T11:22:56;5.27;;;2.27;;
6105;SDS011;3083;51.508;7.966;2023-02-19T11:25:26;3.70;;;1.87;;
6105;SDS011;3083;51.508;7.966;2023-02-19T11:27:54;4.77;;;1.97;;
6105;SDS011;3083;51.508;7.966;2023-02-19T11:30:33;5.50;;;2.30;;
6105;SDS011;3083;51.508;7.966;2023-02-19T11:35:57;4.70;;;2.10;;
6105;SDS011;3083;51.508;7.966;2023-02-19T11:38:42;5.40;;;1.93;;
6105;SDS011;3083;51.508;7.966;2023-02-19T11:41:10;4.10;;;2.27;;
6105;SDS011;3083;51.508;7.966;2023-02-19T11:43:46;4.87;;;2.23;;
6105;SDS011;3083;51.508;7.966;2023-02-19T11:46:24;4.50;;;2.10;;
6105;SDS011;3083;51.508;7.966;2023-02-19T11:49:17;5.30;;;2.30;;
6105;SDS011;3083;51.508;7.966;2023-02-19T11:52:00;6.87;;;2.47;;
6105;SDS011;3083;51.508;7.966;2023-02-19T11:54:43;4.20;;;1.87;;
6105;SDS011;3083;51.508;7.966;2023-02-19T11:57:19;7.77;;;2.60;;
6105;SDS011;3083;51.508;7.966;2023-02-19T11:59:59;7.07;;;2.43;;
6105;SDS011;3083;51.508;7.966;2023-02-19T12:02:46;6.27;;;2.67;;
6105;SDS011;3083;51.508;7.966;2023-02-19T12:05:49;4.43;;;2.20;;
6105;SDS011;3083;51.508;7.966;2023-02-19T12:11:43;4.43;;;2.07;;
6105;SDS011;3083;51.508;7.966;2023-02-19T12:14:27;4.30;;;1.80;;
6105;SDS011;3083;51.508;7.966;2023-02-19T12:17:17;5.20;;;2.00;;
6105;SDS011;3083;51.508;7.966;2023-02-19T12:19:58;4.13;;;1.80;;
6105;SDS011;3083;51.508;7.966;2023-02-19T12:22:39;4.90;;;2.13;;
6105;SDS011;3083;51.508;7.966;2023-02-19T12:25:20;5.63;;;2.23;;
6105;SDS011;3083;51.508;7.966;2023-02-19T12:28:00;4.93;;;2.23;;
6105;SDS011;3083;51.508;7.966;2023-02-19T12:30:46;5.53;;;2.80;;
6105;SDS011;3083;51.508;7.966;2023-02-19T12:33:42;4.63;;;2.57;;
6105;SDS011;3083;51.508;7.966;2023-02-19T12:36:26;4.60;;;2.60;;
6105;SDS011;3083;51.508;7.966;2023-02-19T12:39:04;5.60;;;2.40;;
6105;SDS011;3083;51.508;7.966;2023-02-19T12:41:40;4.87;;;2.20;;
6105;SDS011;3083;51.508;7.966;2023-02-19T12:44:10;4.47;;;2.20;;
6105;SDS011;3083;51.508;7.966;2023-02-19T12:46:43;4.70;;;1.90;;
6105;SDS011;3083;51.508;7.966;2023-02-19T12:49:13;5.23;;;2.30;;
6105;SDS011;3083;51.508;7.966;2023-02-19T12:51:45;6.10;;;2.40;;
6105;SDS011;3083;51.508;7.966;2023-02-19T12:54:17;4.33;;;2.17;;
6105;SDS011;3083;51.508;7.966;2023-02-19T12:56:51;5.20;;;2.27;;
6105;SDS011;3083;51.508;7.966;2023-02-19T12:59:23;7.30;;;3.10;;
6105;SDS011;3083;51.508;7.966;2023-02-19T13:01:55;5.50;;;2.23;;
6105;SDS011;3083;51.508;7.966;2023-02-19T13:04:29;3.63;;;2.00;;
6105;SDS011;3083;51.508;7.966;2023-02-19T13:07:03;3.57;;;1.83;;
6105;SDS011;3083;51.508;7.966;2023-02-19T13:09:40;4.10;;;2.10;;
6105;SDS011;3083;51.508;7.966;2023-02-19T13:12:12;3.53;;;1.80;;
6105;SDS011;3083;51.508;7.966;2023-02-19T13:14:45;5.10;;;1.90;;
6105;SDS011;3083;51.508;7.966;2023-02-19T13:17:17;4.13;;;2.00;;
6105;SDS011;3083;51.508;7.966;2023-02-19T13:19:49;4.20;;;1.90;;
6105;SDS011;3083;51.508;7.966;2023-02-19T13:22:21;6.90;;;3.50;;
6105;SDS011;3083;51.508;7.966;2023-02-19T13:25:13;13.00;;;6.30;;
6105;SDS011;3083;51.508;7.966;2023-02-19T13:27:49;7.63;;;3.23;;
6105;SDS011;3083;51.508;7.966;2023-02-19T13:30:33;7.47;;;3.50;;
6105;SDS011;3083;51.508;7.966;2023-02-19T13:33:21;6.70;;;2.90;;
6105;SDS011;3083;51.508;7.966;2023-02-19T13:36:08;8.60;;;4.77;;
6105;SDS011;3083;51.508;7.966;2023-02-19T13:38:38;7.20;;;3.50;;
6105;SDS011;3083;51.508;7.966;2023-02-19T13:41:16;6.07;;;3.53;;
6105;SDS011;3083;51.508;7.966;2023-02-19T13:43:45;6.13;;;3.40;;
6105;SDS011;3083;51.508;7.966;2023-02-19T13:46:21;6.40;;;3.50;;
6105;SDS011;3083;51.508;7.966;2023-02-19T13:48:57;9.30;;;4.23;;
6105;SDS011;3083;51.508;7.966;2023-02-19T14:04:47;6.33;;;3.40;;
6105;SDS011;3083;51.508;7.966;2023-02-19T14:07:32;9.97;;;4.43;;
6105;SDS011;3083;51.508;7.966;2023-02-19T14:33:50;9.30;;;4.90;;
6105;SDS011;3083;51.508;7.966;2023-02-19T14:36:25;8.80;;;4.40;;
6105;SDS011;3083;51.508;7.966;2023-02-19T14:38:57;8.00;;;4.67;;
6105;SDS011;3083;51.508;7.966;2023-02-19T14:41:27;8.40;;;4.90;;
6105;SDS011;3083;51.508;7.966;2023-02-19T14:43:58;9.50;;;4.97;;
6105;SDS011;3083;51.508;7.966;2023-02-19T14:46:28;5.97;;;3.33;;
6105;SDS011;3083;51.508;7.966;2023-02-19T14:48:58;7.30;;;2.93;;
6105;SDS011;3083;51.508;7.966;2023-02-19T14:51:31;5.70;;;2.87;;
6105;SDS011;3083;51.508;7.966;2023-02-19T14:54:03;6.07;;;2.80;;
6105;SDS011;3083;51.508;7.966;2023-02-19T14:56:37;7.10;;;3.27;;
6105;SDS011;3083;51.508;7.966;2023-02-19T14:59:06;9.47;;;4.70;;
6105;SDS011;3083;51.508;7.966;2023-02-19T15:01:34;8.77;;;4.23;;
6105;SDS011;3083;51.508;7.966;2023-02-19T15:04:02;10.40;;;5.20;;
6105;SDS011;3083;51.508;7.966;2023-02-19T15:06:30;7.97;;;4.30;;
6105;SDS011;3083;51.508;7.966;2023-02-19T15:09:00;10.00;;;5.20;;
6105;SDS011;3083;51.508;7.966;2023-02-19T15:11:30;10.07;;;4.70;;
6105;SDS011;3083;51.508;7.966;2023-02-19T15:13:58;9.63;;;4.57;;
6105;SDS011;3083;51.508;7.966;2023-02-19T15:16:27;8.90;;;3.90;;
6105;SDS011;3083;51.508;7.966;2023-02-19T15:18:55;12.20;;;4.90;;
6105;SDS011;3083;51.508;7.966;2023-02-19T15:21:23;9.67;;;4.50;;
6105;SDS011;3083;51.508;7.966;2023-02-19T15:23:54;22.40;;;10.40;;
6105;SDS011;3083;51.508;7.966;2023-02-19T15:26:22;20.13;;;9.67;;
6105;SDS011;3083;51.508;7.966;2023-02-19T15:28:57;9.83;;;4.37;;
6105;SDS011;3083;51.508;7.966;2023-02-19T15:31:25;11.80;;;4.90;;
6105;SDS011;3083;51.508;7.966;2023-02-19T15:33:52;7.50;;;3.97;;
6105;SDS011;3083;51.508;7.966;2023-02-19T15:36:23;8.93;;;4.40;;
6105;SDS011;3083;51.508;7.966;2023-02-19T15:38:56;8.70;;;3.67;;
6105;SDS011;3083;51.508;7.966;2023-02-19T15:41:26;11.57;;;4.83;;
6105;SDS011;3083;51.508;7.966;2023-02-19T15:43:58;10.50;;;5.60;;
6105;SDS011;3083;51.508;7.966;2023-02-19T15:46:39;9.63;;;5.43;;
6105;SDS011;3083;51.508;7.966;2023-02-19T15:49:10;9.33;;;4.57;;
6105;SDS011;3083;51.508;7.966;2023-02-19T15:51:43;18.60;;;6.80;;
6105;SDS011;3083;51.508;7.966;2023-02-19T15:54:22;20.00;;;6.70;;
6105;SDS011;3083;51.508;7.966;2023-02-19T15:56:53;16.83;;;6.57;;
6105;SDS011;3083;51.508;7.966;2023-02-19T15:59:23;17.90;;;7.60;;
6105;SDS011;3083;51.508;7.966;2023-02-19T16:01:54;14.97;;;6.20;;
6105;SDS011;3083;51.508;7.966;2023-02-19T16:04:22;11.33;;;5.50;;
6105;SDS011;3083;51.508;7.966;2023-02-19T16:06:50;8.00;;;4.30;;
6105;SDS011;3083;51.508;7.966;2023-02-19T16:09:21;9.47;;;4.30;;